KCRG/CRG METAR and TAF weather

Enter ICAO airport designator
Station Type Date Time Source
KCRG METAR 2018/07/16 23:53 UTC NOAA

KCRG 162353Z 21005KT 10SM CLR 29/24 A3002 RMK AO2 SLP164 T02940244 10339 20294 51012


Station Type Date Time Source
KCRG Decoded METAR 2018/07/16 23:53 UTC NOAA

JACKSONVILLE CRAIG MUN, FL, United States (KCRG) 30-20N 81-31W 13M
Jul 16, 2018 - 07:53 PM EDT / 2018.07.16 2353 UTC
Wind: from the SSW (210 degrees) at 6 MPH (5 KT):0
Visibility: 10 mile(s):0
Sky conditions: clear
Temperature: 84.9 F (29.4 C)
Dew Point: 75.9 F (24.4 C)
Relative Humidity: 74%
Pressure (altimeter): 30.02 in. Hg (1016 hPa)
Pressure tendency: 0.04 inches (1.2 hPa) higher than three hours ago
ob: KCRG 162353Z 21005KT 10SM CLR 29/24 A3002 RMK AO2 SLP164 T02940244 10339 20294 51012
cycle: 0

Station Type Date Time Source
KCRG TAF 2018/07/16 21:22 UTC NOAA

TAF
AMD KCRG 162120Z 1621/1718 24008KT P6SM VCSH SCT030 BKN060 BKN100
FM170000 23004KT P6SM SCT100 BKN250


Example: see airport list